Time;durP1;ratioP1;P1;durP2;ratioP2;P2;SDS_P1;SDS_P2;PMS_P1;PMS_P2;Temp;Humidity;BMP_temperature;BMP_pressure;BME280_temperature;BME280_humidity;BME280_pressure;Samples;Min_cycle;Max_cycle;Signal;HPM_P1;HPM_P2
2023/10/06 00:00:42;;;;;;;14.17;7.27;;;11.60;21.50;;;;;;4950207;28;21006;-65
2023/10/06 00:03:12;;;;;;;13.83;6.83;;;11.60;21.70;;;;;;4948756;28;20509;-65
2023/10/06 00:05:39;;;;;;;20.87;8.40;;;11.50;21.80;;;;;;4947880;28;20947;-64
2023/10/06 00:08:10;;;;;;;14.73;7.03;;;11.50;22.00;;;;;;4948603;28;20473;-64
2023/10/06 00:10:44;;;;;;;9.90;6.13;;;11.40;22.00;;;;;;4948872;28;20465;-65
2023/10/06 00:13:18;;;;;;;12.47;7.20;;;11.40;22.00;;;;;;4949726;28;20546;-65
2023/10/06 00:15:49;;;;;;;12.43;7.80;;;11.30;21.80;;;;;;4949757;28;20522;-65
2023/10/06 00:18:18;;;;;;;14.67;7.87;;;11.30;21.90;;;;;;4952338;28;20968;-65
2023/10/06 00:20:48;;;;;;;11.73;7.30;;;11.30;22.10;;;;;;4983248;23;20501;-62
2023/10/06 00:23:20;;;;;;;14.57;7.57;;;11.30;22.00;;;;;;4988944;28;20495;-62
2023/10/06 00:25:51;;;;;;;10.80;7.20;;;11.20;22.30;;;;;;4987675;28;20471;-63
2023/10/06 00:28:19;;;;;;;12.80;7.13;;;11.10;22.80;;;;;;4987891;28;20457;-62
2023/10/06 00:30:47;;;;;;;18.20;8.47;;;11.10;22.70;;;;;;4986692;28;20469;-62
2023/10/06 00:33:14;;;;;;;18.70;7.73;;;11.10;23.30;;;;;;4988549;28;20576;-62
2023/10/06 00:35:44;;;;;;;17.97;7.50;;;11.10;22.80;;;;;;4988588;28;20493;-63
2023/10/06 00:38:16;;;;;;;14.43;7.70;;;11.00;22.80;;;;;;4987670;28;20453;-62
2023/10/06 00:40:46;;;;;;;19.20;8.93;;;11.00;23.20;;;;;;4987460;28;20537;-62
2023/10/06 00:43:20;;;;;;;11.70;6.90;;;11.00;23.00;;;;;;4988955;28;20456;-65
2023/10/06 00:45:48;;;;;;;19.83;9.10;;;11.00;22.90;;;;;;4984928;28;20546;-62
2023/10/06 00:48:14;;;;;;;15.67;7.77;;;10.90;23.00;;;;;;4984257;28;20468;-62
2023/10/06 00:50:43;;;;;;;17.57;8.67;;;10.90;23.40;;;;;;4989011;28;20478;-64
2023/10/06 00:53:13;;;;;;;11.73;6.13;;;10.90;23.40;;;;;;4983304;28;20484;-62
2023/10/06 00:55:40;;;;;;;13.20;7.50;;;10.90;23.40;;;;;;4988998;28;20481;-62
2023/10/06 00:58:10;;;;;;;16.20;8.13;;;10.90;23.50;;;;;;4983800;28;20541;-62
2023/10/06 01:00:39;;;;;;;20.13;7.50;;;10.80;23.70;;;;;;4980619;28;20496;-63
2023/10/06 01:03:14;;;;;;;14.20;8.43;;;10.80;23.70;;;;;;4964868;28;20485;-62
2023/10/06 01:05:45;;;;;;;14.23;7.60;;;10.80;23.70;;;;;;4964452;28;20487;-62
2023/10/06 01:08:12;;;;;;;14.10;7.70;;;10.80;23.50;;;;;;4965405;28;20461;-62
2023/10/06 01:10:40;;;;;;;12.30;7.10;;;10.80;23.50;;;;;;4967235;28;20477;-63
2023/10/06 01:13:12;;;;;;;16.60;8.20;;;10.80;23.50;;;;;;4964251;28;20496;-62
2023/10/06 01:15:48;;;;;;;13.60;7.83;;;10.80;23.60;;;;;;4963361;28;20564;-62
2023/10/06 01:18:23;;;;;;;13.30;7.90;;;10.70;23.90;;;;;;4965819;28;20466;-62
2023/10/06 01:20:50;;;;;;;14.50;8.20;;;10.70;23.70;;;;;;4968218;28;20473;-62
2023/10/06 01:23:21;;;;;;;15.73;8.40;;;10.70;23.80;;;;;;4967344;28;20480;-62
2023/10/06 01:25:53;;;;;;;14.70;7.90;;;10.70;23.90;;;;;;4968975;28;20492;-62
2023/10/06 01:28:23;;;;;;;11.47;7.80;;;10.70;24.10;;;;;;4964910;28;20484;-64
2023/10/06 01:30:50;;;;;;;15.10;8.70;;;10.70;24.10;;;;;;4972064;28;21180;-62
2023/10/06 01:33:17;;;;;;;14.03;8.00;;;10.60;24.00;;;;;;4986742;28;20476;-62
2023/10/06 01:35:45;;;;;;;13.40;7.40;;;10.60;23.90;;;;;;4987343;28;20485;-62
2023/10/06 01:38:19;;;;;;;11.43;7.07;;;10.60;23.70;;;;;;4986509;28;20644;-62
2023/10/06 01:40:51;;;;;;;15.50;7.60;;;10.60;23.80;;;;;;4985527;28;20543;-63
2023/10/06 01:43:22;;;;;;;17.33;7.97;;;10.60;23.80;;;;;;4985907;28;20503;-63
2023/10/06 01:45:50;;;;;;;14.93;7.97;;;10.60;23.80;;;;;;4987975;28;20467;-62
2023/10/06 01:48:29;;;;;;;14.20;7.73;;;10.60;23.90;;;;;;4985700;28;20473;-62
2023/10/06 01:50:56;;;;;;;17.23;9.00;;;10.60;23.90;;;;;;4985295;28;20464;-62
2023/10/06 01:53:25;;;;;;;17.67;8.80;;;10.50;23.90;;;;;;4987760;28;20491;-62
2023/10/06 01:55:54;;;;;;;18.93;7.60;;;10.50;23.80;;;;;;4985229;28;20467;-63
2023/10/06 01:58:21;;;;;;;15.63;7.57;;;10.50;24.00;;;;;;4985336;28;20469;-63
2023/10/06 02:00:48;;;;;;;16.23;8.17;;;10.50;24.10;;;;;;4986621;28;20481;-62
2023/10/06 02:03:18;;;;;;;16.93;7.70;;;10.50;24.30;;;;;;4984170;28;20512;-62
2023/10/06 02:05:44;;;;;;;12.20;7.27;;;10.50;24.20;;;;;;4984615;28;21686;-62
2023/10/06 02:08:14;;;;;;;12.27;6.80;;;10.50;24.30;;;;;;4986744;28;20464;-62
2023/10/06 02:10:43;;;;;;;13.07;6.83;;;10.50;24.40;;;;;;4983749;28;20472;-63
2023/10/06 02:13:11;;;;;;;14.37;6.80;;;10.50;24.50;;;;;;4985087;28;20806;-62
2023/10/06 02:15:38;;;;;;;11.53;7.17;;;10.40;24.50;;;;;;4985152;28;20484;-62
2023/10/06 02:18:12;;;;;;;12.10;7.20;;;10.40;24.40;;;;;;4986248;28;20519;-62
2023/10/06 02:20:41;;;;;;;13.77;7.33;;;10.40;24.50;;;;;;4987621;28;20460;-62
2023/10/06 02:23:08;;;;;;;14.10;7.40;;;10.40;24.60;;;;;;4986462;28;20548;-62
2023/10/06 02:25:36;;;;;;;15.40;7.77;;;10.40;24.50;;;;;;4987899;28;20481;-62
2023/10/06 02:28:05;;;;;;;13.23;7.33;;;10.30;24.80;;;;;;4986667;28;20456;-62
2023/10/06 02:30:37;;;;;;;12.50;6.80;;;10.30;24.60;;;;;;4987517;28;20468;-63
2023/10/06 02:33:05;;;;;;;16.87;8.00;;;10.40;24.60;;;;;;4981498;28;20572;-63
2023/10/06 02:35:32;;;;;;;13.10;7.90;;;10.30;24.70;;;;;;4984682;28;21044;-62
2023/10/06 02:38:04;;;;;;;19.60;9.60;;;10.30;25.00;;;;;;4987537;28;20460;-62
2023/10/06 02:40:37;;;;;;;13.63;7.63;;;10.30;25.10;;;;;;4987137;28;20973;-62
2023/10/06 02:43:09;;;;;;;14.50;7.90;;;10.30;25.10;;;;;;4984106;28;20464;-62
2023/10/06 02:45:40;;;;;;;12.63;7.70;;;10.30;25.20;;;;;;4986431;28;20558;-62
2023/10/06 02:48:14;;;;;;;14.40;7.80;;;10.20;25.00;;;;;;4989635;28;20461;-62
2023/10/06 02:50:44;;;;;;;16.20;8.90;;;10.30;25.10;;;;;;4988763;28;20455;-62
2023/10/06 02:53:14;;;;;;;10.33;8.10;;;10.20;25.20;;;;;;4987538;28;20460;-64
2023/10/06 02:55:43;;;;;;;12.50;7.00;;;10.20;25.30;;;;;;4987183;28;20480;-62
2023/10/06 02:58:24;;;;;;;16.90;8.20;;;10.20;25.40;;;;;;4986989;28;20943;-62
2023/10/06 03:00:52;;;;;;;11.70;6.70;;;10.10;25.30;;;;;;4988196;28;20465;-62
2023/10/06 03:03:22;;;;;;;15.23;8.57;;;10.10;25.00;;;;;;4995978;28;20456;-62
2023/10/06 03:05:51;;;;;;;11.00;7.27;;;10.10;25.20;;;;;;5004985;28;20461;-62
2023/10/06 03:08:21;;;;;;;13.83;7.37;;;10.00;25.30;;;;;;4993587;28;20464;-62
2023/10/06 03:10:49;;;;;;;13.33;7.03;;;10.00;25.00;;;;;;4985807;28;20548;-62
2023/10/06 03:13:24;;;;;;;13.67;7.60;;;10.00;24.90;;;;;;4990606;28;20492;-62
2023/10/06 03:15:52;;;;;;;14.03;7.17;;;9.90;25.10;;;;;;4986254;28;20965;-62
2023/10/06 03:18:19;;;;;;;12.17;7.43;;;9.90;24.80;;;;;;4990907;28;20465;-62
2023/10/06 03:20:53;;;;;;;18.10;8.50;;;9.90;24.90;;;;;;4987201;28;20958;-62
2023/10/06 03:23:30;;;;;;;15.57;7.97;;;9.90;24.90;;;;;;4988612;28;20507;-62
2023/10/06 03:25:57;;;;;;;17.20;9.50;;;9.90;24.70;;;;;;4986790;28;21011;-62
2023/10/06 03:28:32;;;;;;;17.77;9.20;;;9.80;24.40;;;;;;4988852;28;20468;-62
2023/10/06 03:31:03;;;;;;;19.57;11.37;;;9.80;24.40;;;;;;4985140;28;20563;-62
2023/10/06 03:33:31;;;;;;;14.53;9.30;;;9.80;24.40;;;;;;4990543;28;20472;-64
2023/10/06 03:35:58;;;;;;;16.17;9.13;;;9.80;24.30;;;;;;4987476;28;20468;-62
2023/10/06 03:38:27;;;;;;;20.97;11.80;;;9.80;24.50;;;;;;4989029;28;20457;-62
2023/10/06 03:41:07;;;;;;;19.27;11.33;;;9.70;24.40;;;;;;4989362;28;20463;-62
2023/10/06 03:43:40;;;;;;;21.70;11.87;;;9.70;24.20;;;;;;4984119;28;20467;-62
2023/10/06 03:46:09;;;;;;;26.83;12.55;;;9.70;24.20;;;;;;4984876;28;21362;-62
2023/10/06 03:48:37;;;;;;;43.77;12.60;;;9.60;25.20;;;;;;4989373;28;20206;-62
2023/10/06 03:51:05;;;;;;;31.17;12.67;;;9.70;24.90;;;;;;4987747;28;20464;-62
2023/10/06 03:53:32;;;;;;;31.90;12.90;;;9.60;25.00;;;;;;4988770;28;20492;-62
2023/10/06 03:55:59;;;;;;;22.77;12.23;;;9.60;25.30;;;;;;4985209;28;20468;-63
2023/10/06 03:58:28;;;;;;;24.27;12.47;;;9.60;25.00;;;;;;4987635;28;20989;-65
2023/10/06 04:00:55;;;;;;;22.50;13.00;;;9.60;25.10;;;;;;4984527;28;20879;-66
2023/10/06 04:03:23;;;;;;;20.80;13.40;;;9.60;25.30;;;;;;4985016;28;20464;-66
2023/10/06 04:05:51;;;;;;;22.67;12.20;;;9.60;25.50;;;;;;4986003;28;20472;-63
2023/10/06 04:08:20;;;;;;;18.63;11.60;;;9.50;25.30;;;;;;4982339;28;20474;-64
2023/10/06 04:10:51;;;;;;;23.17;11.60;;;9.60;25.40;;;;;;4988158;28;20468;-63
2023/10/06 04:13:18;;;;;;;19.40;10.30;;;9.50;25.60;;;;;;4987492;28;20493;-64
2023/10/06 04:15:49;;;;;;;15.70;9.70;;;9.50;25.30;;;;;;4986436;28;20487;-64
2023/10/06 04:18:17;;;;;;;15.67;10.17;;;9.50;25.50;;;;;;4987917;28;20503;-63
2023/10/06 04:20:46;;;;;;;19.83;7.80;;;9.50;25.40;;;;;;4988609;28;20475;-63
2023/10/06 04:23:14;;;;;;;19.87;8.50;;;9.50;25.50;;;;;;4986474;28;20463;-64
2023/10/06 04:25:42;;;;;;;15.73;8.77;;;9.40;25.40;;;;;;4986474;28;20550;-64
2023/10/06 04:28:11;;;;;;;20.13;9.13;;;9.40;25.60;;;;;;4988223;28;20483;-64
2023/10/06 04:30:38;;;;;;;14.33;8.13;;;9.50;26.00;;;;;;4988075;28;20848;-64
2023/10/06 04:33:05;;;;;;;11.73;7.70;;;9.40;26.10;;;;;;4987686;28;20503;-64
2023/10/06 04:35:32;;;;;;;17.93;5.80;;;9.30;26.40;;;;;;4989295;28;20524;-63
2023/10/06 04:38:00;;;;;;;25.03;6.00;;;9.30;26.50;;;;;;4987795;28;20457;-63
2023/10/06 04:40:27;;;;;;;41.67;8.63;;;9.20;26.70;;;;;;4986706;28;20493;-64
2023/10/06 04:42:54;;;;;;;16.60;6.00;;;9.10;26.90;;;;;;4984530;28;20496;-63
2023/10/06 04:45:21;;;;;;;17.13;6.73;;;9.10;27.00;;;;;;4986622;28;20502;-63
2023/10/06 04:47:48;;;;;;;21.90;6.57;;;9.00;27.10;;;;;;4983283;28;20465;-64
2023/10/06 04:50:16;;;;;;;9.43;6.53;;;9.00;27.00;;;;;;4988176;28;20469;-63
2023/10/06 04:52:44;;;;;;;19.23;7.47;;;9.00;27.20;;;;;;4983956;28;20465;-63
2023/10/06 04:55:13;;;;;;;21.90;6.30;;;9.00;27.40;;;;;;4985924;28;20497;-63
2023/10/06 04:57:41;;;;;;;24.30;7.07;;;8.90;27.80;;;;;;4987593;28;20464;-63
2023/10/06 05:00:13;;;;;;;11.53;6.07;;;8.80;27.80;;;;;;4985525;28;20472;-63
2023/10/06 05:02:42;;;;;;;16.13;6.07;;;8.80;27.90;;;;;;4985381;28;20473;-63
2023/10/06 05:05:10;;;;;;;13.70;6.10;;;8.70;28.20;;;;;;4982900;28;20481;-64
2023/10/06 05:07:37;;;;;;;16.63;6.40;;;8.60;28.40;;;;;;4985192;28;20466;-63
2023/10/06 05:10:08;;;;;;;15.53;6.47;;;8.60;28.50;;;;;;4987588;28;20463;-63
2023/10/06 05:12:37;;;;;;;10.23;7.00;;;8.60;28.60;;;;;;4986962;28;20464;-63
2023/10/06 05:15:07;;;;;;;11.27;8.30;;;8.60;28.40;;;;;;4983811;28;20830;-63
2023/10/06 05:17:34;;;;;;;10.93;7.53;;;8.60;28.40;;;;;;4982559;28;20477;-64
2023/10/06 05:20:00;;;;;;;13.63;8.50;;;8.60;28.00;;;;;;4987409;28;20480;-63
2023/10/06 05:22:27;;;;;;;9.90;6.73;;;8.70;27.90;;;;;;4988531;28;20469;-63
2023/10/06 05:24:54;;;;;;;10.40;7.17;;;8.70;27.70;;;;;;4986068;28;20477;-63
2023/10/06 05:27:22;;;;;;;10.70;7.60;;;8.70;28.00;;;;;;4985314;28;20547;-63
2023/10/06 05:29:50;;;;;;;9.07;7.20;;;8.70;27.60;;;;;;4988020;28;20543;-63
2023/10/06 05:32:17;;;;;;;9.60;6.37;;;8.70;27.30;;;;;;4984188;28;20544;-63
2023/10/06 05:34:43;;;;;;;7.60;5.97;;;8.70;27.10;;;;;;4988896;28;20493;-63
2023/10/06 05:37:12;;;;;;;9.93;6.20;;;8.70;26.90;;;;;;4977875;28;20473;-63
2023/10/06 05:39:40;;;;;;;8.30;5.97;;;8.80;26.80;;;;;;4985052;28;20898;-65
2023/10/06 05:42:08;;;;;;;8.40;5.90;;;8.80;26.80;;;;;;4982708;28;20472;-64
2023/10/06 05:44:36;;;;;;;8.77;6.20;;;8.80;26.70;;;;;;4982573;28;20491;-63
2023/10/06 05:47:08;;;;;;;8.13;6.13;;;8.80;27.10;;;;;;4985005;28;20518;-63
2023/10/06 05:49:35;;;;;;;8.27;6.00;;;8.80;26.80;;;;;;4987595;28;20468;-62
2023/10/06 05:52:03;;;;;;;7.97;5.90;;;8.80;26.60;;;;;;4987170;28;20472;-63
2023/10/06 05:54:30;;;;;;;9.23;6.60;;;8.80;26.60;;;;;;4982751;28;20527;-64
2023/10/06 05:56:57;;;;;;;14.23;6.10;;;8.90;26.70;;;;;;4980784;28;21273;-64
2023/10/06 05:59:25;;;;;;;9.23;6.60;;;8.90;26.60;;;;;;4985867;28;20477;-63
2023/10/06 06:01:56;;;;;;;11.07;6.80;;;9.00;26.60;;;;;;4984987;28;20480;-66
2023/10/06 06:04:27;;;;;;;7.83;6.17;;;9.10;26.50;;;;;;4987731;28;20488;-66
2023/10/06 06:06:56;;;;;;;9.23;6.67;;;9.20;26.40;;;;;;4988977;28;20546;-63
2023/10/06 06:09:24;;;;;;;9.07;6.10;;;9.30;26.20;;;;;;4988676;28;20500;-62
2023/10/06 06:11:50;;;;;;;7.93;6.50;;;9.40;26.10;;;;;;4985215;28;20465;-67
2023/10/06 06:14:20;;;;;;;10.10;6.40;;;9.50;26.00;;;;;;4990462;28;20510;-65
2023/10/06 06:16:47;;;;;;;9.97;6.40;;;9.60;25.90;;;;;;5004802;28;20478;-65
2023/10/06 06:19:13;;;;;;;9.57;6.30;;;9.60;25.60;;;;;;5000003;28;20461;-64
2023/10/06 06:21:42;;;;;;;10.67;5.80;;;9.70;25.30;;;;;;4993560;28;20559;-64
2023/10/06 06:24:09;;;;;;;9.13;5.40;;;9.80;24.90;;;;;;4985510;28;20993;-64
2023/10/06 06:26:37;;;;;;;10.20;5.93;;;9.90;24.60;;;;;;4993755;28;21115;-64
2023/10/06 06:29:03;;;;;;;10.43;7.03;;;10.00;24.40;;;;;;4993135;28;20527;-65
2023/10/06 06:31:32;;;;;;;10.97;6.87;;;10.10;24.50;;;;;;4993876;28;20559;-65
2023/10/06 06:34:00;;;;;;;15.80;7.10;;;10.30;24.60;;;;;;4992093;28;20488;-64
2023/10/06 06:36:27;;;;;;;12.47;6.93;;;10.50;24.00;;;;;;4989061;28;20479;-65
2023/10/06 06:38:56;;;;;;;12.60;7.80;;;10.60;23.70;;;;;;4992464;28;20811;-65
2023/10/06 06:41:22;;;;;;;17.37;9.40;;;10.70;23.40;;;;;;4991833;28;20476;-64
2023/10/06 06:43:54;;;;;;;13.63;10.00;;;10.80;23.00;;;;;;4992009;28;20503;-65
2023/10/06 06:46:21;;;;;;;25.80;10.30;;;10.90;22.50;;;;;;4992729;28;20468;-65
2023/10/06 06:48:49;;;;;;;11.70;8.57;;;10.90;22.20;;;;;;4991579;28;20531;-64
2023/10/06 06:51:15;;;;;;;27.43;7.63;;;10.90;22.00;;;;;;4992414;28;20547;-66
2023/10/06 06:53:42;;;;;;;20.10;7.10;;;11.00;22.00;;;;;;4992386;28;20941;-64
2023/10/06 06:56:10;;;;;;;16.50;7.80;;;11.00;21.80;;;;;;4990981;28;20511;-65
2023/10/06 06:58:37;;;;;;;39.20;8.83;;;11.00;22.00;;;;;;4992449;28;21253;-65
2023/10/06 07:01:05;;;;;;;15.47;8.53;;;11.10;22.20;;;;;;4993146;28;20891;-66
2023/10/06 07:03:32;;;;;;;41.77;10.93;;;11.20;22.50;;;;;;4990679;28;21172;-66
2023/10/06 07:06:00;;;;;;;28.47;10.17;;;11.40;22.80;;;;;;4991519;28;20543;-66
2023/10/06 07:08:27;;;;;;;17.23;9.30;;;11.50;22.80;;;;;;4992025;28;20499;-66
2023/10/06 07:10:54;;;;;;;21.00;7.57;;;11.70;22.60;;;;;;4992368;28;20457;-66
2023/10/06 07:13:23;;;;;;;51.33;8.40;;;12.00;22.20;;;;;;4992460;28;20465;-66
2023/10/06 07:15:50;;;;;;;53.27;8.70;;;12.10;21.50;;;;;;4987768;28;20559;-66
2023/10/06 07:18:19;;;;;;;35.70;7.97;;;12.40;21.00;;;;;;4989619;28;20464;-67
2023/10/06 07:20:48;;;;;;;33.20;9.50;;;12.60;20.00;;;;;;4990293;28;20476;-66
2023/10/06 07:23:15;;;;;;;30.27;7.47;;;12.70;19.60;;;;;;4982045;28;20556;-63
2023/10/06 07:25:42;;;;;;;16.17;8.20;;;12.80;18.90;;;;;;4990941;28;20484;-63
2023/10/06 07:28:12;;;;;;;15.30;6.43;;;13.00;18.70;;;;;;4989798;28;20504;-63
2023/10/06 07:30:40;;;;;;;13.63;5.90;;;13.30;18.30;;;;;;4986984;28;20683;-63
2023/10/06 07:33:07;;;;;;;11.90;6.20;;;13.50;17.10;;;;;;4969151;28;20470;-61
2023/10/06 07:35:41;;;;;;;22.07;5.93;;;13.70;16.70;;;;;;4970274;28;20986;-61
2023/10/06 07:38:10;;;;;;;17.93;6.10;;;14.10;15.40;;;;;;4969327;28;21025;-64
2023/10/06 07:40:38;;;;;;;11.20;5.20;;;14.30;14.90;;;;;;4968103;28;20521;-64
2023/10/06 07:43:05;;;;;;;11.23;5.07;;;14.60;14.10;;;;;;4971851;28;20468;-63
2023/10/06 07:45:32;;;;;;;19.37;5.67;;;14.80;13.40;;;;;;4969718;28;20517;-63
2023/10/06 07:48:01;;;;;;;17.77;6.30;;;14.90;13.00;;;;;;4972089;28;20461;-61
2023/10/06 07:50:28;;;;;;;7.27;4.43;;;15.00;13.30;;;;;;4971059;28;20461;-63
2023/10/06 07:52:56;;;;;;;6.33;4.63;;;15.20;13.20;;;;;;4971737;28;20458;-63
2023/10/06 07:55:23;;;;;;;8.80;5.07;;;15.30;13.00;;;;;;4971192;28;20499;-63
2023/10/06 07:57:51;;;;;;;40.70;7.50;;;15.50;12.60;;;;;;4972506;28;20461;-62
2023/10/06 08:00:27;;;;;;;7.30;5.40;;;15.70;12.00;;;;;;4971505;28;20462;-63
2023/10/06 08:02:54;;;;;;;8.20;5.60;;;16.00;11.20;;;;;;4971196;28;20465;-63
2023/10/06 08:05:22;;;;;;;7.50;5.70;;;16.20;11.10;;;;;;4970342;28;20489;-63
2023/10/06 08:07:49;;;;;;;7.23;5.10;;;16.20;10.90;;;;;;4971688;28;20468;-65
2023/10/06 08:10:18;;;;;;;9.73;6.47;;;16.30;10.60;;;;;;4971504;28;20461;-64
2023/10/06 08:12:46;;;;;;;17.10;6.67;;;16.20;10.40;;;;;;4971837;28;20472;-64
2023/10/06 08:15:17;;;;;;;15.90;6.67;;;16.20;10.50;;;;;;4971728;28;20486;-64
2023/10/06 08:17:45;;;;;;;9.40;6.00;;;16.10;11.20;;;;;;4968849;28;20478;-63
2023/10/06 08:20:13;;;;;;;9.13;6.00;;;16.30;10.60;;;;;;4970522;28;20473;-64
2023/10/06 08:22:45;;;;;;;8.87;6.50;;;16.60;10.00;;;;;;4969059;28;20466;-64
2023/10/06 08:25:13;;;;;;;11.00;6.50;;;16.80;9.80;;;;;;4964325;28;20537;-64
2023/10/06 08:27:41;;;;;;;7.87;6.03;;;17.00;9.70;;;;;;4969593;28;20947;-64
2023/10/06 08:30:09;;;;;;;9.60;6.43;;;17.30;9.10;;;;;;4968882;28;20552;-64
2023/10/06 08:32:36;;;;;;;8.80;6.90;;;17.40;8.90;;;;;;4968685;28;22536;-64
2023/10/06 08:35:12;;;;;;;9.27;6.77;;;17.30;9.10;;;;;;4969291;28;21017;-64
2023/10/06 08:37:42;;;;;;;8.87;7.00;;;17.30;9.20;;;;;;4965293;28;20477;-65
2023/10/06 08:40:16;;;;;;;10.20;7.13;;;17.20;9.40;;;;;;4969374;28;20457;-64
2023/10/06 08:42:46;;;;;;;9.03;6.90;;;17.10;9.90;;;;;;4985857;23;20473;-67
2023/10/06 08:45:15;;;;;;;9.30;7.23;;;17.00;10.30;;;;;;4981572;28;20508;-62
2023/10/06 08:47:42;;;;;;;13.80;7.23;;;17.00;10.60;;;;;;4982527;28;20461;-62
2023/10/06 08:50:10;;;;;;;9.70;7.87;;;17.10;10.60;;;;;;4983121;28;20480;-62
2023/10/06 08:52:38;;;;;;;9.17;6.87;;;17.50;10.30;;;;;;4989348;28;20519;-62
2023/10/06 08:55:09;;;;;;;9.20;7.07;;;18.10;9.70;;;;;;4984674;28;20484;-62
2023/10/06 08:57:36;;;;;;;9.53;7.10;;;18.60;9.00;;;;;;4982932;28;20817;-62
2023/10/06 09:00:07;;;;;;;9.37;7.80;;;19.30;8.40;;;;;;4984913;28;20469;-62
2023/10/06 09:02:34;;;;;;;9.27;6.77;;;21.80;4.30;;;;;;5001608;28;20500;-62
2023/10/06 09:05:01;;;;;;;8.47;6.80;;;24.30;1.00;;;;;;5009546;28;20727;-62
2023/10/06 09:07:29;;;;;;;10.57;7.90;;;25.90;1.00;;;;;;5009503;28;20463;-62
2023/10/06 09:09:56;;;;;;;10.90;8.03;;;26.90;1.00;;;;;;5005485;28;20956;-62
2023/10/06 09:12:26;;;;;;;9.90;8.77;;;27.60;1.00;;;;;;5008934;28;20471;-63
2023/10/06 09:14:55;;;;;;;9.03;7.43;;;28.80;1.00;;;;;;5010184;28;20590;-63
2023/10/06 09:17:32;;;;;;;8.33;7.00;;;31.20;1.00;;;;;;5008209;28;20516;-63
2023/10/06 09:19:59;;;;;;;8.13;6.20;;;33.50;1.00;;;;;;5009361;28;20472;-62
2023/10/06 09:22:30;;;;;;;6.93;6.10;;;34.40;1.00;;;;;;5007934;28;20452;-61
2023/10/06 09:24:59;;;;;;;8.43;7.40;;;35.30;1.00;;;;;;5006688;28;20911;-62
2023/10/06 09:27:28;;;;;;;9.10;7.90;;;36.20;1.00;;;;;;5007732;28;20494;-63
2023/10/06 09:30:05;;;;;;;11.53;9.10;;;37.10;1.00;;;;;;5000304;28;20461;-67
2023/10/06 09:32:32;;;;;;;10.27;8.37;;;38.00;1.00;;;;;;5005902;28;20485;-63
2023/10/06 09:34:59;;;;;;;10.73;8.40;;;38.70;1.00;;;;;;5003737;28;20984;-64
2023/10/06 09:37:25;;;;;;;10.63;8.63;;;39.20;1.00;;;;;;5007816;28;20491;-65
2023/10/06 09:40:10;;;;;;;10.83;8.43;;;39.80;1.00;;;;;;5006706;28;21009;-63
2023/10/06 09:42:41;;;;;;;10.90;8.20;;;40.40;1.00;;;;;;5002051;28;20456;-64
2023/10/06 09:45:15;;;;;;;9.23;8.27;;;40.90;1.00;;;;;;5007272;28;20487;-63
2023/10/06 09:47:48;;;;;;;9.93;8.50;;;41.00;1.00;;;;;;5007297;28;20526;-64
2023/10/06 09:50:15;;;;;;;10.27;8.83;;;41.10;1.00;;;;;;5001110;28;20550;-63
2023/10/06 09:52:44;;;;;;;10.73;8.40;;;41.20;1.00;;;;;;5000037;28;20463;-64
2023/10/06 09:55:11;;;;;;;12.53;8.67;;;41.00;1.00;;;;;;5006857;28;20480;-63
2023/10/06 09:57:42;;;;;;;9.13;8.20;;;40.80;1.00;;;;;;5003966;28;20476;-63
2023/10/06 10:00:16;;;;;;;12.30;9.17;;;40.50;1.00;;;;;;5005320;28;20467;-64
2023/10/06 10:02:45;;;;;;;9.97;8.97;;;40.50;1.00;;;;;;5005759;28;20460;-63
2023/10/06 10:05:13;;;;;;;10.90;9.63;;;40.30;1.00;;;;;;5000016;28;20549;-63
2023/10/06 10:07:41;;;;;;;15.30;10.17;;;40.00;1.00;;;;;;4999852;28;20894;-65
2023/10/06 10:10:10;;;;;;;11.40;10.20;;;39.70;1.00;;;;;;5001862;28;20471;-65
2023/10/06 10:12:54;;;;;;;11.30;10.00;;;39.20;1.00;;;;;;5002965;28;20506;-65
2023/10/06 10:15:37;;;;;;;11.80;10.50;;;38.70;1.00;;;;;;5004525;28;21000;-65
2023/10/06 10:18:11;;;;;;;17.47;11.73;;;38.20;1.00;;;;;;5000921;28;20463;-65
2023/10/06 10:20:38;;;;;;;14.73;12.73;;;37.70;1.00;;;;;;5007384;28;20815;-65
2023/10/06 10:23:06;;;;;;;16.47;11.50;;;37.30;1.00;;;;;;5008077;28;20455;-65
2023/10/06 10:25:36;;;;;;;15.10;12.70;;;36.80;1.00;;;;;;5003234;28;20539;-64
2023/10/06 10:28:15;;;;;;;13.67;11.37;;;36.20;1.00;;;;;;5004570;28;21027;-65
2023/10/06 10:30:50;;;;;;;11.23;9.97;;;35.50;1.00;;;;;;5001456;28;20497;-66
2023/10/06 10:33:21;;;;;;;11.60;10.23;;;34.80;1.00;;;;;;5008117;28;20491;-65
2023/10/06 10:36:23;;;;;;;11.20;9.70;;;33.80;1.00;;;;;;5002227;28;20479;-65
2023/10/06 10:39:04;;;;;;;11.53;10.33;;;33.10;1.00;;;;;;4998426;28;20944;-66
2023/10/06 10:41:36;;;;;;;12.20;10.90;;;32.40;1.00;;;;;;5008556;28;20456;-64
2023/10/06 10:44:05;;;;;;;13.57;11.00;;;31.80;1.00;;;;;;5003177;28;20542;-65
2023/10/06 10:46:39;;;;;;;11.90;10.37;;;31.30;1.00;;;;;;5002346;28;20463;-64
2023/10/06 10:49:09;;;;;;;15.03;10.90;;;31.00;1.00;;;;;;5007935;28;20460;-65
2023/10/06 10:51:50;;;;;;;11.67;10.47;;;30.70;1.00;;;;;;5004123;28;20835;-65
2023/10/06 10:54:21;;;;;;;14.03;10.57;;;30.60;1.00;;;;;;5003518;28;20471;-64
2023/10/06 10:56:51;;;;;;;12.17;9.70;;;30.50;1.00;;;;;;5004991;28;21311;-65
2023/10/06 10:59:20;;;;;;;14.20;10.30;;;30.50;1.00;;;;;;5007197;28;20566;-67
2023/10/06 11:01:51;;;;;;;12.23;10.20;;;30.60;1.00;;;;;;5000178;28;21003;-65
2023/10/06 11:04:25;;;;;;;14.20;10.10;;;30.50;1.00;;;;;;5001585;28;20557;-66
2023/10/06 11:06:55;;;;;;;11.90;9.80;;;30.50;1.00;;;;;;5007745;28;20509;-66
2023/10/06 11:09:28;;;;;;;12.70;9.87;;;30.60;1.00;;;;;;5006890;28;20503;-65
2023/10/06 11:11:56;;;;;;;11.63;9.50;;;30.90;1.00;;;;;;5007557;28;20558;-67
2023/10/06 11:14:25;;;;;;;12.10;10.00;;;30.90;1.00;;;;;;5004573;28;20487;-65
2023/10/06 11:16:54;;;;;;;14.37;9.03;;;30.90;1.00;;;;;;5007232;28;20475;-65
2023/10/06 11:19:20;;;;;;;11.70;9.57;;;31.00;1.00;;;;;;5002305;28;20471;-66
2023/10/06 11:21:48;;;;;;;11.73;8.83;;;31.00;1.00;;;;;;5003659;28;20468;-66
2023/10/06 11:24:26;;;;;;;10.10;7.90;;;31.00;1.00;;;;;;5003848;28;20530;-66
2023/10/06 11:26:53;;;;;;;11.30;8.50;;;31.00;1.00;;;;;;5003435;28;20519;-67
2023/10/06 11:29:31;;;;;;;15.50;9.50;;;30.90;1.00;;;;;;5003964;28;20471;-67
2023/10/06 11:32:01;;;;;;;15.20;9.57;;;31.00;1.00;;;;;;5001104;28;20474;-67
2023/10/06 11:34:30;;;;;;;11.90;8.67;;;31.00;1.00;;;;;;5003862;28;21838;-67
2023/10/06 11:36:58;;;;;;;12.40;8.27;;;31.00;1.00;;;;;;5005164;28;20494;-66
2023/10/06 11:39:29;;;;;;;12.87;8.50;;;30.80;1.00;;;;;;5006985;28;20459;-65
2023/10/06 11:42:29;;;;;;;10.30;8.00;;;30.80;1.00;;;;;;5003664;28;20847;-66
2023/10/06 11:44:59;;;;;;;11.03;7.53;;;30.70;1.00;;;;;;5006524;28;20491;-66
2023/10/06 11:47:44;;;;;;;8.70;7.43;;;30.70;1.00;;;;;;5002000;28;20472;-66
2023/10/06 11:50:31;;;;;;;10.20;8.13;;;30.60;1.00;;;;;;5001103;28;20503;-66
2023/10/06 11:52:58;;;;;;;11.53;8.07;;;30.50;1.00;;;;;;5002713;28;20472;-65
2023/10/06 11:55:28;;;;;;;13.37;8.80;;;30.20;1.00;;;;;;5001205;28;20557;-65
2023/10/06 11:57:55;;;;;;;11.83;9.33;;;30.00;1.00;;;;;;5005835;28;20487;-66
2023/10/06 12:00:37;;;;;;;13.23;7.87;;;29.80;1.00;;;;;;5000543;28;20544;-65
2023/10/06 12:03:06;;;;;;;10.63;7.73;;;29.50;1.00;;;;;;5006826;28;20469;-66
2023/10/06 12:05:33;;;;;;;11.50;8.07;;;29.20;1.00;;;;;;5003251;28;20487;-65
2023/10/06 12:08:04;;;;;;;10.93;7.83;;;29.00;1.00;;;;;;5002370;28;20456;-65
2023/10/06 12:10:33;;;;;;;12.83;7.90;;;28.90;1.00;;;;;;5003675;28;20464;-67
2023/10/06 12:13:04;;;;;;;10.40;7.30;;;28.70;1.00;;;;;;5006557;28;20515;-67
2023/10/06 12:15:31;;;;;;;9.13;6.53;;;28.40;1.00;;;;;;5005168;28;20488;-66
2023/10/06 12:18:00;;;;;;;11.90;8.00;;;28.10;1.00;;;;;;5003490;28;20491;-67
2023/10/06 12:20:27;;;;;;;10.83;6.80;;;28.00;1.00;;;;;;5002450;28;20465;-65
2023/10/06 12:22:54;;;;;;;11.73;6.53;;;27.80;1.00;;;;;;4998565;28;20479;-65
2023/10/06 12:25:23;;;;;;;12.73;7.00;;;27.70;1.00;;;;;;4997952;28;20910;-65
2023/10/06 12:27:50;;;;;;;14.80;8.33;;;27.60;1.00;;;;;;5002587;28;20966;-65
2023/10/06 12:30:18;;;;;;;13.07;7.23;;;27.30;1.00;;;;;;5005226;28;20956;-66
2023/10/06 12:32:46;;;;;;;12.70;7.87;;;27.10;1.00;;;;;;5004529;28;20485;-65
2023/10/06 12:35:18;;;;;;;10.90;6.73;;;26.80;1.00;;;;;;5003282;28;20507;-65
2023/10/06 12:37:45;;;;;;;10.83;7.30;;;26.60;1.00;;;;;;5004619;28;20550;-65
2023/10/06 12:40:14;;;;;;;11.50;7.53;;;26.40;1.00;;;;;;5000676;28;20488;-66
2023/10/06 12:42:42;;;;;;;12.20;7.80;;;26.00;1.00;;;;;;5000900;28;20601;-65
2023/10/06 12:45:12;;;;;;;11.40;8.07;;;25.60;1.00;;;;;;5004399;28;20827;-65
2023/10/06 12:47:39;;;;;;;17.73;7.57;;;25.40;1.00;;;;;;5002758;28;20503;-65
2023/10/06 12:50:08;;;;;;;14.60;6.40;;;25.10;1.00;;;;;;5001469;28;20460;-65
2023/10/06 12:52:37;;;;;;;9.83;6.10;;;24.90;1.00;;;;;;5002939;28;20466;-66
2023/10/06 12:55:10;;;;;;;10.03;6.63;;;24.70;1.00;;;;;;5003736;28;20490;-65